Time;durP1;ratioP1;P1;durP2;ratioP2;P2;SDS_P1;SDS_P2;PMS_P1;PMS_P2;Temp;Humidity;BMP_temperature;BMP_pressure;BME280_temperature;BME280_humidity;BME280_pressure;Samples;Min_cycle;Max_cycle;Signal;HPM_P1;HPM_P2
2021/05/23 00:08:11;;;;;;;10.7;3.8;;;;;;;7.38;100;98266.55;;;;
2021/05/23 00:18:09;;;;;;;7.8;3.7;;;;;;;7.2;100;98266.58;;;;
2021/05/23 00:28:08;;;;;;;6.8;2.8;;;;;;;7.07;100;98266.25;;;;
2021/05/23 00:38:06;;;;;;;3;1.6;;;;;;;6.98;100;98264.51;;;;
2021/05/23 00:48:05;;;;;;;6.2;2.1;;;;;;;7.05;100;98264.94;;;;
2021/05/23 00:58:03;;;;;;;3.4;1.5;;;;;;;7;100;98265.03;;;;
2021/05/23 01:08:01;;;;;;;3.2;1.6;;;;;;;7.01;100;98255.91;;;;
2021/05/23 01:18:00;;;;;;;3.8;1.9;;;;;;;7.17;100;98251.89;;;;
2021/05/23 01:27:58;;;;;;;3;1.3;;;;;;;7.42;100;98250.67;;;;
2021/05/23 01:38:00;;;;;;;3.3;1.5;;;;;;;7.66;100;98262.03;;;;
2021/05/23 01:47:55;;;;;;;4.2;1.4;;;;;;;7.76;100;98251.11;;;;
2021/05/23 01:57:54;;;;;;;4.1;1.6;;;;;;;7.88;100;98256.77;;;;
2021/05/23 02:07:52;;;;;;;4.9;2.3;;;;;;;7.99;100;98260.05;;;;
2021/05/23 02:17:51;;;;;;;6.9;1.8;;;;;;;8.21;100;98262.05;;;;
2021/05/23 02:27:49;;;;;;;4.4;1.3;;;;;;;8.18;100;98260.76;;;;
2021/05/23 02:37:48;;;;;;;7.2;1.6;;;;;;;8.02;100;98254.09;;;;
2021/05/23 02:47:46;;;;;;;3.9;1.3;;;;;;;7.76;100;98266.41;;;;
2021/05/23 02:57:44;;;;;;;4.3;1.5;;;;;;;7.63;100;98276.04;;;;
2021/05/23 03:07:43;;;;;;;6.4;3.3;;;;;;;7.69;100;98282.89;;;;
2021/05/23 03:17:41;;;;;;;6.4;2.5;;;;;;;7.87;100;98306.17;;;;
2021/05/23 03:27:40;;;;;;;6.7;3.1;;;;;;;7.86;100;98301.89;;;;
2021/05/23 03:37:38;;;;;;;6.3;3.8;;;;;;;8.02;100;98307.76;;;;
2021/05/23 03:47:37;;;;;;;6.1;4.9;;;;;;;8.25;100;98306.79;;;;
2021/05/23 03:57:35;;;;;;;7;4.1;;;;;;;8.6;100;98299.92;;;;
2021/05/23 04:07:34;;;;;;;8.1;3.9;;;;;;;8.6;100;98307.98;;;;
2021/05/23 04:17:34;;;;;;;6.2;3.1;;;;;;;8.89;100;98318.35;;;;
2021/05/23 04:27:34;;;;;;;6.4;2.6;;;;;;;9.53;100;98315.23;;;;
2021/05/23 04:37:30;;;;;;;4;2.1;;;;;;;10.1;100;98300;;;;
2021/05/23 04:47:29;;;;;;;5.7;2.9;;;;;;;10.66;100;98306.53;;;;
2021/05/23 04:57:27;;;;;;;4.1;2;;;;;;;11.1;100;98308.17;;;;
2021/05/23 05:07:26;;;;;;;4.2;1.7;;;;;;;11.54;100;98321.31;;;;
2021/05/23 05:17:25;;;;;;;2.9;1.7;;;;;;;11.72;100;98308.61;;;;
2021/05/23 05:27:24;;;;;;;7.8;2.6;;;;;;;12.03;100;98311.85;;;;
2021/05/23 05:37:24;;;;;;;5.9;1.9;;;;;;;12.38;100;98317.11;;;;
2021/05/23 05:47:22;;;;;;;4.4;1.4;;;;;;;12.78;100;98312.09;;;;
2021/05/23 05:57:21;;;;;;;4.6;1.4;;;;;;;13.59;100;98317.86;;;;
2021/05/23 06:07:21;;;;;;;2.9;1.6;;;;;;;14.08;100;98314.15;;;;
2021/05/23 06:17:20;;;;;;;2;0.9;;;;;;;14.34;97.62793;98323.89;;;;
2021/05/23 06:27:19;;;;;;;2.7;0.9;;;;;;;15.13;97.90332;98319.77;;;;
2021/05/23 06:37:18;;;;;;;2.4;1.2;;;;;;;15.28;98.58496;98319.03;;;;
2021/05/23 06:47:18;;;;;;;2.3;0.9;;;;;;;15.71;98.83984;98324.55;;;;
2021/05/23 06:57:17;;;;;;;6.4;1.4;;;;;;;15.93;95.5625;98325.92;;;;
2021/05/23 07:07:16;;;;;;;1.8;1;;;;;;;16.2;97.13184;98326.99;;;;
2021/05/23 07:17:16;;;;;;;3.9;1.2;;;;;;;16.78;94.02637;98315.22;;;;
2021/05/23 07:27:16;;;;;;;2.3;0.6;;;;;;;16.65;89.33984;98334.73;;;;
2021/05/23 07:37:15;;;;;;;5.6;2.5;;;;;;;17.06;85.0625;98337.63;;;;
2021/05/23 07:47:15;;;;;;;3.8;1;;;;;;;17.47;84.70703;98333.43;;;;
2021/05/23 07:57:14;;;;;;;2.2;0.9;;;;;;;18.1;83.78223;98330.37;;;;
2021/05/23 08:07:14;;;;;;;2.5;0.8;;;;;;;18.16;83.46191;98319.94;;;;
2021/05/23 08:17:14;;;;;;;1.4;0.5;;;;;;;18.47;77.24219;98322.41;;;;
2021/05/23 08:27:14;;;;;;;2;0.6;;;;;;;19.29;75.71582;98327.16;;;;
2021/05/23 08:37:14;;;;;;;2.4;1.1;;;;;;;19.36;68.49805;98324.52;;;;
2021/05/23 08:47:14;;;;;;;1.1;0.5;;;;;;;19.99;73.94336;98306.11;;;;
2021/05/23 08:57:14;;;;;;;2.1;1.2;;;;;;;20.35;64.51855;98315.47;;;;
2021/05/23 09:07:14;;;;;;;1.4;0.6;;;;;;;20.53;59.49121;98319.14;;;;
2021/05/23 09:17:14;;;;;;;1.4;0.6;;;;;;;20.45;44.33105;98316.72;;;;
2021/05/23 09:27:14;;;;;;;6.2;1.7;;;;;;;20.1;45.44824;98331.63;;;;
2021/05/23 09:37:14;;;;;;;2.5;0.7;;;;;;;20.76;46.05176;98327.13;;;;
2021/05/23 09:47:14;;;;;;;2.3;0.8;;;;;;;21.08;48.2998;98330.86;;;;
2021/05/23 09:57:14;;;;;;;3.5;1.1;;;;;;;21.57;43.67188;98330.34;;;;
2021/05/23 10:07:14;;;;;;;2.3;0.8;;;;;;;21.65;43.72461;98335.86;;;;
2021/05/23 10:17:14;;;;;;;1.7;0.6;;;;;;;21.73;37.13379;98340.21;;;;
2021/05/23 10:27:15;;;;;;;3.1;1.4;;;;;;;21.13;39.64453;98339.92;;;;
2021/05/23 10:37:15;;;;;;;3.7;1;;;;;;;21.46;40.83203;98348.7;;;;
2021/05/23 10:47:15;;;;;;;4.5;1.2;;;;;;;21.08;41.33398;98350.05;;;;
2021/05/23 10:57:16;;;;;;;3;0.9;;;;;;;20.13;42.24902;98365.68;;;;
2021/05/23 11:07:15;;;;;;;2.7;1.2;;;;;;;17.13;42.30957;98371.6;;;;
2021/05/23 11:17:15;;;;;;;3.4;1.3;;;;;;;16.62;47.22852;98381.69;;;;
2021/05/23 11:27:16;;;;;;;2.8;0.5;;;;;;;16.75;43.68359;98380.45;;;;
2021/05/23 11:37:14;;;;;;;3.5;0.8;;;;;;;17.13;47.15527;98379.77;;;;
2021/05/23 11:47:14;;;;;;;1.5;0.9;;;;;;;17.07;47.44922;98387.44;;;;
2021/05/23 11:57:13;;;;;;;1.1;0.5;;;;;;;16.9;50.74414;98398.7;;;;
2021/05/23 12:07:13;;;;;;;4.1;1.4;;;;;;;16.42;56.60742;98402.52;;;;
2021/05/23 12:17:12;;;;;;;2.2;1;;;;;;;16.09;61.71191;98414.52;;;;
2021/05/23 12:27:16;;;;;;;2;1;;;;;;;15.63;70.0293;98441.52;;;;
2021/05/23 12:37:12;;;;;;;1.9;1;;;;;;;14.15;90.29785;98467.28;;;;
2021/05/23 12:47:11;;;;;;;3.7;1.2;;;;;;;12.82;98.30762;98478.01;;;;
2021/05/23 12:57:10;;;;;;;3.1;1.4;;;;;;;12.32;100;98488.66;;;;
2021/05/23 13:07:09;;;;;;;2.8;1.4;;;;;;;12.14;100;98503.3;;;;
2021/05/23 13:17:08;;;;;;;2.6;1;;;;;;;12.42;100;98513.45;;;;
2021/05/23 13:27:07;;;;;;;3.3;1.1;;;;;;;12.56;100;98526.78;;;;
2021/05/23 13:37:06;;;;;;;3.1;1.5;;;;;;;12.88;100;98526.19;;;;
2021/05/23 13:47:05;;;;;;;2.7;1.3;;;;;;;12.28;100;98536.36;;;;
2021/05/23 13:57:04;;;;;;;2.6;1.5;;;;;;;11.93;100;98530.96;;;;
2021/05/23 14:07:03;;;;;;;2.8;0.8;;;;;;;12.05;100;98539.21;;;;
2021/05/23 14:17:02;;;;;;;3.6;1.4;;;;;;;11.95;100;98544.13;;;;
2021/05/23 14:27:01;;;;;;;3.3;1.2;;;;;;;12.35;100;98550.98;;;;
2021/05/23 14:37:00;;;;;;;3.3;1.3;;;;;;;12.63;100;98564.13;;;;
2021/05/23 14:46:59;;;;;;;9.7;3;;;;;;;12.67;100;98559.67;;;;
2021/05/23 14:56:58;;;;;;;6.1;2.9;;;;;;;12.76;100;98573.96;;;;
2021/05/23 15:06:58;;;;;;;8.2;3.1;;;;;;;12.45;100;98590.39;;;;
2021/05/23 15:16:57;;;;;;;4.8;2.1;;;;;;;12.49;100;98588.64;;;;
2021/05/23 15:27:00;;;;;;;3.2;1.3;;;;;;;12.09;100;98602.3;;;;
2021/05/23 15:36:55;;;;;;;4.4;1.6;;;;;;;11.47;100;98604.37;;;;
2021/05/23 15:46:54;;;;;;;5;2.4;;;;;;;11.54;100;98609.31;;;;
2021/05/23 15:56:53;;;;;;;4.9;3.1;;;;;;;11.23;100;98597.77;;;;
2021/05/23 16:06:52;;;;;;;5;2.8;;;;;;;11.16;100;98600.91;;;;
2021/05/23 16:16:50;;;;;;;7.6;3.9;;;;;;;11.16;100;98594.71;;;;
2021/05/23 16:26:49;;;;;;;12.5;4.1;;;;;;;11.15;100;98603.91;;;;
2021/05/23 16:36:51;;;;;;;5.8;3.8;;;;;;;10.95;100;98600.65;;;;
2021/05/23 16:46:47;;;;;;;6.1;3.5;;;;;;;10.85;100;98609;;;;
2021/05/23 16:56:46;;;;;;;5.9;3.3;;;;;;;10.81;100;98613.41;;;;
2021/05/23 17:06:44;;;;;;;5;2.3;;;;;;;10.81;100;98618;;;;
2021/05/23 17:16:43;;;;;;;5.9;2.4;;;;;;;10.75;100;98625.43;;;;
2021/05/23 17:26:42;;;;;;;8.1;4.6;;;;;;;10.71;100;98637.92;;;;
2021/05/23 17:36:41;;;;;;;6.1;4.5;;;;;;;10.47;100;98651.7;;;;
2021/05/23 17:46:40;;;;;;;8.4;4.5;;;;;;;10.41;100;98668.29;;;;
2021/05/23 17:56:38;;;;;;;9.3;5.1;;;;;;;10.54;100;98672.83;;;;
2021/05/23 18:06:37;;;;;;;11.5;4.6;;;;;;;10.4;100;98677.47;;;;
2021/05/23 18:16:36;;;;;;;11;4.7;;;;;;;10.23;100;98666.53;;;;
2021/05/23 18:26:35;;;;;;;6.4;4;;;;;;;10.2;100;98680.61;;;;
2021/05/23 18:36:35;;;;;;;7.9;4.3;;;;;;;10.17;100;98700.84;;;;
2021/05/23 18:46:36;;;;;;;8.7;5.4;;;;;;;10;100;98716.78;;;;
2021/05/23 18:56:31;;;;;;;7.6;5;;;;;;;10.01;100;98729.97;;;;
2021/05/23 19:06:30;;;;;;;6.8;3.9;;;;;;;10.1;100;98755.08;;;;
2021/05/23 19:16:28;;;;;;;10.6;6.2;;;;;;;10.3;100;98778.17;;;;
2021/05/23 19:26:29;;;;;;;12;8.6;;;;;;;10.32;100;98797.51;;;;
2021/05/23 19:36:27;;;;;;;41.2;34.1;;;;;;;10.22;100;98804.98;;;;
2021/05/23 19:46:27;;;;;;;13.2;11.8;;;;;;;10.15;100;98809.98;;;;
2021/05/23 19:56:24;;;;;;;15.6;7.6;;;;;;;9.97;100;98825.89;;;;
2021/05/23 20:06:22;;;;;;;11.1;5.8;;;;;;;9.74;100;98834.92;;;;
2021/05/23 20:16:21;;;;;;;8.9;6.8;;;;;;;9.64;100;98843.18;;;;
2021/05/23 20:26:20;;;;;;;8.7;5.6;;;;;;;9.54;100;98848.73;;;;
2021/05/23 20:36:19;;;;;;;15.3;9.2;;;;;;;9.26;100;98853.2;;;;
2021/05/23 20:46:17;;;;;;;18.6;9.1;;;;;;;9.16;100;98868.69;;;;
2021/05/23 20:56:16;;;;;;;10.6;8.1;;;;;;;9.08;100;98881.69;;;;
2021/05/23 21:06:14;;;;;;;13.3;10;;;;;;;8.94;100;98882.69;;;;
2021/05/23 21:16:13;;;;;;;12.2;9.7;;;;;;;8.7;100;98892.67;;;;
2021/05/23 21:26:11;;;;;;;10.6;7.5;;;;;;;8.66;100;98913.14;;;;
2021/05/23 21:36:10;;;;;;;10.6;8.1;;;;;;;8.4;100;98908.05;;;;
2021/05/23 21:46:08;;;;;;;11.9;7.9;;;;;;;8.31;100;98906.27;;;;
2021/05/23 21:56:07;;;;;;;9.2;6.4;;;;;;;8.2;100;98923.53;;;;
2021/05/23 22:06:05;;;;;;;14.3;7.8;;;;;;;8.06;100;98942.19;;;;
2021/05/23 22:16:03;;;;;;;10.8;7.5;;;;;;;7.88;100;98946.36;;;;
2021/05/23 22:26:02;;;;;;;12.3;7.9;;;;;;;7.77;100;98958.28;;;;
2021/05/23 22:36:00;;;;;;;10.2;6.5;;;;;;;7.73;100;98969.84;;;;
2021/05/23 22:45:59;;;;;;;12.3;8;;;;;;;7.62;100;98976.34;;;;
2021/05/23 22:55:57;;;;;;;9.5;6.3;;;;;;;7.56;100;98980.95;;;;
2021/05/23 23:05:55;;;;;;;12.5;7;;;;;;;7.52;100;98990.63;;;;
2021/05/23 23:15:54;;;;;;;8.3;5.7;;;;;;;7.51;100;98994.38;;;;
2021/05/23 23:25:52;;;;;;;10.3;7.2;;;;;;;7.57;100;99002.11;;;;
2021/05/23 23:35:51;;;;;;;6.9;4.4;;;;;;;7.54;100;99026;;;;
2021/05/23 23:45:49;;;;;;;7.4;5.2;;;;;;;7.36;100;99029.31;;;;
2021/05/23 23:55:47;;;;;;;6.8;4.6;;;;;;;7.16;100;99045.48;;;;
